Aeroporto :
LOGIN :

Iscrizione | Disclaimer

   EN    FR    IT 

 










Sommario :    VFR   VFR Marginale   IFR   IFR Intensivo   IFR Molto Intensivo
Visibilità : 
Base nubi : 
>= 8 km
>= 3000ft
5 / 8 km
1000 / 3000 ft
1500m / 5 km
500 / 1000 ft
800 / 1500m
200 / 500 ft
< 800m
< 200 ft
Simboli :   Temporali  Nebbia  Neve Forte  Precipitazioni Forti  Vento > 20 kt
SIGMETs :   Varie  Temporali  Ghiacco  Turbolenza  Onda orograficha  Ceneri Vulcaniche







- Altitudine del aeroporto : 479 ft
- Codice IATA : DOL
- Carte del aeroporto


LFRG - Deauville

ULTIMO METAR :
  • 161530Z AUTO 32007KT 250V010 9999 OVC009 17/15 Q1022 TEMPO BKN012

METARs OBSOLETI :
  • 161500Z AUTO 31005KT 230V020 9999 OVC009 18/15 Q1022 TEMPO BKN012
  • 161430Z AUTO 29006KT 250V340 9999 OVC009 18/15 Q1022 NOSIG
  • 161400Z AUTO 31006KT 270V340 9999 OVC007 17/16 Q1023 NOSIG
  • 161330Z AUTO 30005KT 260V340 9999 OVC007 18/16 Q1023 NOSIG
  • 161300Z AUTO 29006KT 260V320 9999 OVC007 18/16 Q1023 NOSIG

TAF TAF LFRG
Valido dal 16 a 15 ore il 17 a 00 ore UTC


161400Z 1615/1624 32008KT 9999 BKN007
TEMPO 1615/1618 BKN012
BECMG 1619/1621 VRB03KT
TEMPO 1621/1624 BKN003
ATIS : +33 2 31 65 65 36
Nessun NOTAM noto per questo aeroporto.



MetMap, La meteo Aeronautica in un colpo d'occhio ! - Copyright ORBIFLY Dicembre 2007 - Disclaimer

ORBIFLY MET'MAP TEAM :

Programmazione e sviluppo : Alexandra Zaïnal
Concezione e sviluppo : Baudouin d'Aumeries
Co-Programmazione e sviluppo : Marc-Olivier Méhu
Supporto tecnico e logistico : Manuel Goepfert
Aiuto per la traduzione : Arnaldo La Scala

Contatto : metmap@orbifly.com




FONTI E CREDITI :

   NOAA